sensor_id;sensor_type;location;lat;lon;timestamp;P1;durP1;ratioP1;P2;durP2;ratioP2
31754;SDS011;18325;52.018;4.726;2023-05-17T00:02:13;8.93;;;2.27;;
31754;SDS011;18325;52.018;4.726;2023-05-17T00:04:40;8.70;;;2.53;;
31754;SDS011;18325;52.018;4.726;2023-05-17T00:07:06;9.70;;;2.63;;
31754;SDS011;18325;52.018;4.726;2023-05-17T00:09:33;7.13;;;2.40;;
31754;SDS011;18325;52.018;4.726;2023-05-17T00:11:59;7.80;;;2.53;;
31754;SDS011;18325;52.018;4.726;2023-05-17T00:14:27;9.13;;;2.80;;
31754;SDS011;18325;52.018;4.726;2023-05-17T00:16:54;9.07;;;2.87;;
31754;SDS011;18325;52.018;4.726;2023-05-17T00:19:20;10.03;;;2.53;;
31754;SDS011;18325;52.018;4.726;2023-05-17T00:21:46;11.50;;;2.80;;
31754;SDS011;18325;52.018;4.726;2023-05-17T00:24:13;5.23;;;2.37;;
31754;SDS011;18325;52.018;4.726;2023-05-17T00:26:39;6.50;;;2.40;;
31754;SDS011;18325;52.018;4.726;2023-05-17T00:29:06;3.60;;;2.33;;
31754;SDS011;18325;52.018;4.726;2023-05-17T00:31:33;12.60;;;3.87;;
31754;SDS011;18325;52.018;4.726;2023-05-17T00:34:00;8.27;;;2.30;;
31754;SDS011;18325;52.018;4.726;2023-05-17T00:36:26;9.50;;;1.90;;
31754;SDS011;18325;52.018;4.726;2023-05-17T00:38:53;8.07;;;2.20;;
31754;SDS011;18325;52.018;4.726;2023-05-17T00:41:19;8.87;;;2.43;;
31754;SDS011;18325;52.018;4.726;2023-05-17T00:43:45;6.93;;;2.50;;
31754;SDS011;18325;52.018;4.726;2023-05-17T00:46:12;6.83;;;2.43;;
31754;SDS011;18325;52.018;4.726;2023-05-17T00:48:41;9.13;;;2.50;;
31754;SDS011;18325;52.018;4.726;2023-05-17T00:51:08;10.80;;;2.40;;
31754;SDS011;18325;52.018;4.726;2023-05-17T00:53:34;6.37;;;2.70;;
31754;SDS011;18325;52.018;4.726;2023-05-17T00:56:01;6.90;;;2.30;;
31754;SDS011;18325;52.018;4.726;2023-05-17T00:58:28;6.23;;;2.50;;
31754;SDS011;18325;52.018;4.726;2023-05-17T01:00:54;8.97;;;2.70;;
31754;SDS011;18325;52.018;4.726;2023-05-17T01:03:21;5.17;;;1.90;;
31754;SDS011;18325;52.018;4.726;2023-05-17T01:05:49;7.30;;;2.07;;
31754;SDS011;18325;52.018;4.726;2023-05-17T01:08:15;5.97;;;2.60;;
31754;SDS011;18325;52.018;4.726;2023-05-17T01:10:43;4.63;;;2.10;;
31754;SDS011;18325;52.018;4.726;2023-05-17T01:13:14;8.23;;;2.63;;
31754;SDS011;18325;52.018;4.726;2023-05-17T01:15:45;9.67;;;2.40;;
31754;SDS011;18325;52.018;4.726;2023-05-17T01:18:16;10.27;;;2.77;;
31754;SDS011;18325;52.018;4.726;2023-05-17T01:20:47;8.40;;;2.60;;
31754;SDS011;18325;52.018;4.726;2023-05-17T01:23:22;5.43;;;2.03;;
31754;SDS011;18325;52.018;4.726;2023-05-17T01:25:59;7.93;;;2.13;;
31754;SDS011;18325;52.018;4.726;2023-05-17T01:28:33;9.43;;;2.77;;
31754;SDS011;18325;52.018;4.726;2023-05-17T01:31:02;9.13;;;2.90;;
31754;SDS011;18325;52.018;4.726;2023-05-17T01:33:30;4.87;;;2.47;;
31754;SDS011;18325;52.018;4.726;2023-05-17T01:35:56;8.23;;;2.50;;
31754;SDS011;18325;52.018;4.726;2023-05-17T01:38:23;13.63;;;3.10;;
31754;SDS011;18325;52.018;4.726;2023-05-17T01:40:51;8.97;;;2.23;;
31754;SDS011;18325;52.018;4.726;2023-05-17T01:43:21;4.47;;;1.93;;
31754;SDS011;18325;52.018;4.726;2023-05-17T01:45:55;6.17;;;2.30;;
31754;SDS011;18325;52.018;4.726;2023-05-17T01:48:25;7.20;;;2.67;;
31754;SDS011;18325;52.018;4.726;2023-05-17T01:50:54;11.37;;;2.47;;
31754;SDS011;18325;52.018;4.726;2023-05-17T01:53:24;8.70;;;2.47;;
31754;SDS011;18325;52.018;4.726;2023-05-17T01:55:55;5.20;;;2.80;;
31754;SDS011;18325;52.018;4.726;2023-05-17T01:58:24;8.80;;;2.83;;
31754;SDS011;18325;52.018;4.726;2023-05-17T02:00:51;4.77;;;2.37;;
31754;SDS011;18325;52.018;4.726;2023-05-17T02:03:21;10.00;;;2.60;;
31754;SDS011;18325;52.018;4.726;2023-05-17T02:05:47;11.47;;;3.00;;
31754;SDS011;18325;52.018;4.726;2023-05-17T02:08:14;5.50;;;2.27;;
31754;SDS011;18325;52.018;4.726;2023-05-17T02:10:40;10.17;;;3.30;;
31754;SDS011;18325;52.018;4.726;2023-05-17T02:13:07;6.17;;;3.50;;
31754;SDS011;18325;52.018;4.726;2023-05-17T02:15:33;12.40;;;2.37;;
31754;SDS011;18325;52.018;4.726;2023-05-17T02:18:01;10.30;;;3.07;;
31754;SDS011;18325;52.018;4.726;2023-05-17T02:20:27;6.50;;;1.90;;
31754;SDS011;18325;52.018;4.726;2023-05-17T02:22:54;6.70;;;2.43;;
31754;SDS011;18325;52.018;4.726;2023-05-17T02:25:20;9.07;;;2.60;;
31754;SDS011;18325;52.018;4.726;2023-05-17T02:27:46;9.80;;;2.73;;
31754;SDS011;18325;52.018;4.726;2023-05-17T02:30:13;7.63;;;2.53;;
31754;SDS011;18325;52.018;4.726;2023-05-17T02:32:41;7.70;;;2.60;;
31754;SDS011;18325;52.018;4.726;2023-05-17T02:35:09;8.33;;;2.50;;
31754;SDS011;18325;52.018;4.726;2023-05-17T02:37:35;6.47;;;2.60;;
31754;SDS011;18325;52.018;4.726;2023-05-17T02:40:02;11.53;;;2.20;;
31754;SDS011;18325;52.018;4.726;2023-05-17T02:42:32;4.30;;;2.30;;
31754;SDS011;18325;52.018;4.726;2023-05-17T02:44:59;6.57;;;2.93;;
31754;SDS011;18325;52.018;4.726;2023-05-17T02:47:25;6.53;;;2.10;;
31754;SDS011;18325;52.018;4.726;2023-05-17T02:49:51;9.30;;;2.70;;
31754;SDS011;18325;52.018;4.726;2023-05-17T02:52:19;10.37;;;3.50;;
31754;SDS011;18325;52.018;4.726;2023-05-17T02:54:46;5.97;;;2.33;;
31754;SDS011;18325;52.018;4.726;2023-05-17T02:57:12;8.43;;;2.20;;
31754;SDS011;18325;52.018;4.726;2023-05-17T02:59:39;5.43;;;2.60;;
31754;SDS011;18325;52.018;4.726;2023-05-17T03:02:05;8.03;;;3.23;;
31754;SDS011;18325;52.018;4.726;2023-05-17T03:04:31;11.73;;;2.33;;
31754;SDS011;18325;52.018;4.726;2023-05-17T03:06:58;9.37;;;2.47;;
31754;SDS011;18325;52.018;4.726;2023-05-17T03:09:26;6.73;;;2.80;;
31754;SDS011;18325;52.018;4.726;2023-05-17T03:11:53;8.97;;;2.60;;
31754;SDS011;18325;52.018;4.726;2023-05-17T03:14:20;5.40;;;2.53;;
31754;SDS011;18325;52.018;4.726;2023-05-17T03:16:46;8.60;;;2.43;;
31754;SDS011;18325;52.018;4.726;2023-05-17T03:19:12;9.13;;;2.27;;
31754;SDS011;18325;52.018;4.726;2023-05-17T03:21:39;10.17;;;2.83;;
31754;SDS011;18325;52.018;4.726;2023-05-17T03:24:06;3.87;;;2.23;;
31754;SDS011;18325;52.018;4.726;2023-05-17T03:26:34;9.27;;;2.93;;
31754;SDS011;18325;52.018;4.726;2023-05-17T03:29:00;11.10;;;3.07;;
31754;SDS011;18325;52.018;4.726;2023-05-17T03:31:26;9.73;;;2.57;;
31754;SDS011;18325;52.018;4.726;2023-05-17T03:33:53;8.57;;;2.97;;
31754;SDS011;18325;52.018;4.726;2023-05-17T03:36:19;10.60;;;2.50;;
31754;SDS011;18325;52.018;4.726;2023-05-17T03:38:46;7.70;;;2.83;;
31754;SDS011;18325;52.018;4.726;2023-05-17T03:41:12;8.60;;;2.63;;
31754;SDS011;18325;52.018;4.726;2023-05-17T03:43:40;8.70;;;3.07;;
31754;SDS011;18325;52.018;4.726;2023-05-17T03:46:07;10.47;;;3.70;;
31754;SDS011;18325;52.018;4.726;2023-05-17T03:48:33;7.83;;;2.33;;
31754;SDS011;18325;52.018;4.726;2023-05-17T03:50:59;6.37;;;3.07;;
31754;SDS011;18325;52.018;4.726;2023-05-17T03:53:26;7.93;;;2.67;;
31754;SDS011;18325;52.018;4.726;2023-05-17T03:55:53;7.67;;;3.50;;
31754;SDS011;18325;52.018;4.726;2023-05-17T03:58:19;11.30;;;2.70;;
31754;SDS011;18325;52.018;4.726;2023-05-17T04:00:47;12.80;;;2.20;;
31754;SDS011;18325;52.018;4.726;2023-05-17T04:03:13;12.90;;;3.63;;
31754;SDS011;18325;52.018;4.726;2023-05-17T04:05:40;5.50;;;2.13;;
31754;SDS011;18325;52.018;4.726;2023-05-17T04:08:07;11.07;;;2.27;;
31754;SDS011;18325;52.018;4.726;2023-05-17T04:10:33;8.07;;;2.37;;
31754;SDS011;18325;52.018;4.726;2023-05-17T04:13:00;7.43;;;2.13;;
31754;SDS011;18325;52.018;4.726;2023-05-17T04:15:26;8.93;;;3.43;;
31754;SDS011;18325;52.018;4.726;2023-05-17T04:17:54;7.90;;;2.07;;
31754;SDS011;18325;52.018;4.726;2023-05-17T04:20:20;7.93;;;1.77;;
31754;SDS011;18325;52.018;4.726;2023-05-17T04:22:47;17.37;;;2.73;;
31754;SDS011;18325;52.018;4.726;2023-05-17T04:25:13;8.20;;;2.60;;
31754;SDS011;18325;52.018;4.726;2023-05-17T04:27:40;7.97;;;1.70;;
31754;SDS011;18325;52.018;4.726;2023-05-17T04:30:07;12.17;;;2.47;;
31754;SDS011;18325;52.018;4.726;2023-05-17T04:32:33;6.23;;;1.73;;
31754;SDS011;18325;52.018;4.726;2023-05-17T04:35:01;7.83;;;1.90;;
31754;SDS011;18325;52.018;4.726;2023-05-17T04:37:28;10.93;;;2.30;;
31754;SDS011;18325;52.018;4.726;2023-05-17T04:39:54;11.13;;;2.00;;
31754;SDS011;18325;52.018;4.726;2023-05-17T04:42:23;8.90;;;2.00;;
31754;SDS011;18325;52.018;4.726;2023-05-17T04:44:49;8.00;;;1.90;;
31754;SDS011;18325;52.018;4.726;2023-05-17T04:47:15;5.30;;;2.10;;
31754;SDS011;18325;52.018;4.726;2023-05-17T04:49:42;5.33;;;1.80;;
31754;SDS011;18325;52.018;4.726;2023-05-17T04:52:10;8.43;;;2.20;;
31754;SDS011;18325;52.018;4.726;2023-05-17T04:54:36;9.50;;;1.70;;
31754;SDS011;18325;52.018;4.726;2023-05-17T04:57:03;6.63;;;2.50;;
31754;SDS011;18325;52.018;4.726;2023-05-17T04:59:29;5.77;;;1.97;;
31754;SDS011;18325;52.018;4.726;2023-05-17T05:01:55;7.67;;;1.87;;
31754;SDS011;18325;52.018;4.726;2023-05-17T05:04:22;4.93;;;1.50;;
31754;SDS011;18325;52.018;4.726;2023-05-17T05:06:49;11.93;;;2.40;;
31754;SDS011;18325;52.018;4.726;2023-05-17T05:09:17;8.57;;;1.70;;
31754;SDS011;18325;52.018;4.726;2023-05-17T05:11:43;10.03;;;2.50;;
31754;SDS011;18325;52.018;4.726;2023-05-17T05:14:10;8.80;;;2.70;;
31754;SDS011;18325;52.018;4.726;2023-05-17T05:16:36;9.57;;;3.07;;
31754;SDS011;18325;52.018;4.726;2023-05-17T05:19:03;9.67;;;2.03;;
31754;SDS011;18325;52.018;4.726;2023-05-17T05:21:29;9.47;;;2.27;;
31754;SDS011;18325;52.018;4.726;2023-05-17T05:23:56;9.53;;;1.90;;
31754;SDS011;18325;52.018;4.726;2023-05-17T05:26:23;13.50;;;1.53;;
31754;SDS011;18325;52.018;4.726;2023-05-17T05:28:50;5.93;;;1.77;;
31754;SDS011;18325;52.018;4.726;2023-05-17T05:31:16;9.07;;;2.17;;
31754;SDS011;18325;52.018;4.726;2023-05-17T05:33:42;18.80;;;2.40;;
31754;SDS011;18325;52.018;4.726;2023-05-17T05:36:09;11.50;;;1.47;;
31754;SDS011;18325;52.018;4.726;2023-05-17T05:38:35;11.83;;;2.10;;
31754;SDS011;18325;52.018;4.726;2023-05-17T05:41:02;6.80;;;1.50;;
31754;SDS011;18325;52.018;4.726;2023-05-17T05:43:30;9.93;;;1.50;;
31754;SDS011;18325;52.018;4.726;2023-05-17T05:45:56;8.63;;;2.03;;
31754;SDS011;18325;52.018;4.726;2023-05-17T05:48:23;4.77;;;1.10;;
31754;SDS011;18325;52.018;4.726;2023-05-17T05:50:49;8.60;;;1.83;;
31754;SDS011;18325;52.018;4.726;2023-05-17T05:53:15;7.70;;;2.00;;
31754;SDS011;18325;52.018;4.726;2023-05-17T05:55:42;7.80;;;1.43;;
31754;SDS011;18325;52.018;4.726;2023-05-17T05:58:08;9.67;;;1.40;;
31754;SDS011;18325;52.018;4.726;2023-05-17T06:00:36;10.70;;;1.87;;
31754;SDS011;18325;52.018;4.726;2023-05-17T06:03:03;9.47;;;1.37;;
31754;SDS011;18325;52.018;4.726;2023-05-17T06:05:30;5.73;;;1.60;;
31754;SDS011;18325;52.018;4.726;2023-05-17T06:07:56;11.53;;;4.97;;
31754;SDS011;18325;52.018;4.726;2023-05-17T06:10:22;4.30;;;1.50;;
31754;SDS011;18325;52.018;4.726;2023-05-17T06:12:49;9.73;;;2.00;;
31754;SDS011;18325;52.018;4.726;2023-05-17T06:15:15;7.07;;;1.77;;
31754;SDS011;18325;52.018;4.726;2023-05-17T06:17:43;9.07;;;1.33;;
31754;SDS011;18325;52.018;4.726;2023-05-17T06:20:10;8.10;;;1.40;;
31754;SDS011;18325;52.018;4.726;2023-05-17T06:22:36;5.60;;;1.20;;
31754;SDS011;18325;52.018;4.726;2023-05-17T06:25:03;8.70;;;1.20;;
31754;SDS011;18325;52.018;4.726;2023-05-17T06:27:30;10.07;;;1.77;;
31754;SDS011;18325;52.018;4.726;2023-05-17T06:29:57;4.93;;;1.40;;
31754;SDS011;18325;52.018;4.726;2023-05-17T06:32:24;9.30;;;1.30;;
31754;SDS011;18325;52.018;4.726;2023-05-17T06:34:52;7.17;;;1.80;;
31754;SDS011;18325;52.018;4.726;2023-05-17T06:37:18;4.53;;;2.07;;
31754;SDS011;18325;52.018;4.726;2023-05-17T06:39:44;4.10;;;1.30;;
31754;SDS011;18325;52.018;4.726;2023-05-17T06:42:11;6.93;;;1.90;;
31754;SDS011;18325;52.018;4.726;2023-05-17T06:44:37;5.17;;;1.57;;
31754;SDS011;18325;52.018;4.726;2023-05-17T06:47:04;5.20;;;1.30;;
31754;SDS011;18325;52.018;4.726;2023-05-17T06:49:30;2.90;;;1.00;;
31754;SDS011;18325;52.018;4.726;2023-05-17T06:51:58;3.43;;;1.30;;
31754;SDS011;18325;52.018;4.726;2023-05-17T06:54:27;13.20;;;2.37;;
31754;SDS011;18325;52.018;4.726;2023-05-17T06:56:54;6.40;;;1.33;;
31754;SDS011;18325;52.018;4.726;2023-05-17T06:59:20;2.30;;;1.27;;
31754;SDS011;18325;52.018;4.726;2023-05-17T07:01:47;5.63;;;1.10;;
31754;SDS011;18325;52.018;4.726;2023-05-17T07:04:13;5.53;;;1.60;;
31754;SDS011;18325;52.018;4.726;2023-05-17T07:06:40;4.43;;;1.20;;
31754;SDS011;18325;52.018;4.726;2023-05-17T07:09:07;5.77;;;1.20;;
31754;SDS011;18325;52.018;4.726;2023-05-17T07:11:34;2.80;;;1.23;;
31754;SDS011;18325;52.018;4.726;2023-05-17T07:14:00;3.87;;;0.93;;
31754;SDS011;18325;52.018;4.726;2023-05-17T07:16:27;5.20;;;1.27;;
31754;SDS011;18325;52.018;4.726;2023-05-17T07:18:53;5.23;;;1.27;;
31754;SDS011;18325;52.018;4.726;2023-05-17T07:21:20;4.57;;;1.17;;
31754;SDS011;18325;52.018;4.726;2023-05-17T07:23:48;5.13;;;1.33;;
31754;SDS011;18325;52.018;4.726;2023-05-17T07:26:17;5.20;;;1.10;;
31754;SDS011;18325;52.018;4.726;2023-05-17T07:28:44;6.37;;;1.23;;
31754;SDS011;18325;52.018;4.726;2023-05-17T07:31:10;5.83;;;1.03;;
31754;SDS011;18325;52.018;4.726;2023-05-17T07:33:37;3.27;;;0.90;;
31754;SDS011;18325;52.018;4.726;2023-05-17T07:36:03;6.60;;;1.50;;
31754;SDS011;18325;52.018;4.726;2023-05-17T07:38:30;2.80;;;0.90;;
31754;SDS011;18325;52.018;4.726;2023-05-17T07:40:59;6.17;;;0.97;;
31754;SDS011;18325;52.018;4.726;2023-05-17T07:43:27;1.63;;;0.87;;
31754;SDS011;18325;52.018;4.726;2023-05-17T07:45:54;7.20;;;1.40;;
31754;SDS011;18325;52.018;4.726;2023-05-17T07:48:21;4.17;;;0.90;;
31754;SDS011;18325;52.018;4.726;2023-05-17T07:50:47;5.77;;;1.17;;
31754;SDS011;18325;52.018;4.726;2023-05-17T07:53:14;3.47;;;1.10;;
31754;SDS011;18325;52.018;4.726;2023-05-17T07:55:40;5.23;;;0.97;;
31754;SDS011;18325;52.018;4.726;2023-05-17T07:58:08;5.90;;;1.20;;
31754;SDS011;18325;52.018;4.726;2023-05-17T08:00:36;7.43;;;1.43;;
31754;SDS011;18325;52.018;4.726;2023-05-17T08:03:03;5.53;;;1.67;;
31754;SDS011;18325;52.018;4.726;2023-05-17T08:05:29;2.33;;;1.07;;
31754;SDS011;18325;52.018;4.726;2023-05-17T08:07:56;6.70;;;1.40;;
31754;SDS011;18325;52.018;4.726;2023-05-17T08:10:24;5.07;;;0.97;;
31754;SDS011;18325;52.018;4.726;2023-05-17T08:12:50;5.93;;;1.13;;
31754;SDS011;18325;52.018;4.726;2023-05-17T08:15:17;3.13;;;0.67;;
31754;SDS011;18325;52.018;4.726;2023-05-17T08:17:45;7.23;;;1.70;;
31754;SDS011;18325;52.018;4.726;2023-05-17T08:20:11;3.40;;;1.03;;
31754;SDS011;18325;52.018;4.726;2023-05-17T08:22:38;3.37;;;1.33;;
31754;SDS011;18325;52.018;4.726;2023-05-17T08:25:04;6.43;;;1.40;;
31754;SDS011;18325;52.018;4.726;2023-05-17T08:27:31;3.73;;;1.13;;
31754;SDS011;18325;52.018;4.726;2023-05-17T08:29:57;5.27;;;1.27;;
31754;SDS011;18325;52.018;4.726;2023-05-17T08:32:24;5.57;;;1.23;;
31754;SDS011;18325;52.018;4.726;2023-05-17T08:34:52;10.23;;;1.83;;
31754;SDS011;18325;52.018;4.726;2023-05-17T08:37:19;1.83;;;0.90;;
31754;SDS011;18325;52.018;4.726;2023-05-17T08:39:46;3.63;;;1.10;;
31754;SDS011;18325;52.018;4.726;2023-05-17T08:42:13;9.53;;;1.83;;
31754;SDS011;18325;52.018;4.726;2023-05-17T08:44:40;4.53;;;0.97;;
31754;SDS011;18325;52.018;4.726;2023-05-17T08:47:07;1.93;;;0.83;;
31754;SDS011;18325;52.018;4.726;2023-05-17T08:49:35;6.27;;;1.40;;
31754;SDS011;18325;52.018;4.726;2023-05-17T08:52:03;4.87;;;0.90;;
31754;SDS011;18325;52.018;4.726;2023-05-17T08:54:34;10.73;;;1.20;;
31754;SDS011;18325;52.018;4.726;2023-05-17T08:57:00;9.23;;;1.43;;
31754;SDS011;18325;52.018;4.726;2023-05-17T08:59:30;3.63;;;1.47;;
31754;SDS011;18325;52.018;4.726;2023-05-17T09:01:59;6.10;;;1.10;;
31754;SDS011;18325;52.018;4.726;2023-05-17T09:04:26;5.17;;;1.10;;
31754;SDS011;18325;52.018;4.726;2023-05-17T09:06:54;5.43;;;1.20;;
31754;SDS011;18325;52.018;4.726;2023-05-17T09:09:22;2.73;;;1.13;;
31754;SDS011;18325;52.018;4.726;2023-05-17T09:11:48;5.50;;;0.90;;
31754;SDS011;18325;52.018;4.726;2023-05-17T09:14:15;4.67;;;0.90;;
31754;SDS011;18325;52.018;4.726;2023-05-17T09:16:42;5.03;;;0.90;;
31754;SDS011;18325;52.018;4.726;2023-05-17T09:19:13;5.33;;;1.30;;
31754;SDS011;18325;52.018;4.726;2023-05-17T09:21:43;2.37;;;0.80;;
31754;SDS011;18325;52.018;4.726;2023-05-17T09:24:10;3.03;;;0.90;;
31754;SDS011;18325;52.018;4.726;2023-05-17T09:26:39;3.40;;;1.23;;
31754;SDS011;18325;52.018;4.726;2023-05-17T09:29:09;4.70;;;1.20;;
31754;SDS011;18325;52.018;4.726;2023-05-17T09:31:36;6.07;;;1.73;;
31754;SDS011;18325;52.018;4.726;2023-05-17T09:34:02;4.17;;;0.80;;
31754;SDS011;18325;52.018;4.726;2023-05-17T09:36:31;10.13;;;1.20;;
31754;SDS011;18325;52.018;4.726;2023-05-17T09:38:58;7.87;;;1.37;;
31754;SDS011;18325;52.018;4.726;2023-05-17T09:41:25;3.30;;;0.93;;
31754;SDS011;18325;52.018;4.726;2023-05-17T09:43:54;3.73;;;1.10;;
31754;SDS011;18325;52.018;4.726;2023-05-17T09:46:23;5.03;;;0.97;;
31754;SDS011;18325;52.018;4.726;2023-05-17T09:48:52;4.67;;;1.20;;
31754;SDS011;18325;52.018;4.726;2023-05-17T09:51:18;4.63;;;1.30;;
31754;SDS011;18325;52.018;4.726;2023-05-17T09:53:45;3.33;;;1.30;;
31754;SDS011;18325;52.018;4.726;2023-05-17T09:56:12;4.70;;;1.67;;
31754;SDS011;18325;52.018;4.726;2023-05-17T09:58:38;5.60;;;1.33;;
31754;SDS011;18325;52.018;4.726;2023-05-17T10:01:06;5.80;;;1.20;;
31754;SDS011;18325;52.018;4.726;2023-05-17T10:03:35;6.77;;;1.30;;
31754;SDS011;18325;52.018;4.726;2023-05-17T10:06:05;6.63;;;1.20;;
31754;SDS011;18325;52.018;4.726;2023-05-17T10:08:34;3.07;;;1.00;;
31754;SDS011;18325;52.018;4.726;2023-05-17T10:11:02;2.83;;;1.05;;
31754;SDS011;18325;52.018;4.726;2023-05-17T10:13:33;3.80;;;1.50;;
31754;SDS011;18325;52.018;4.726;2023-05-17T10:16:01;5.00;;;1.43;;
31754;SDS011;18325;52.018;4.726;2023-05-17T10:18:29;4.10;;;1.27;;
31754;SDS011;18325;52.018;4.726;2023-05-17T10:20:56;2.73;;;1.10;;
31754;SDS011;18325;52.018;4.726;2023-05-17T10:23:24;2.42;;;0.90;;
31754;SDS011;18325;52.018;4.726;2023-05-17T10:25:51;6.37;;;1.57;;
31754;SDS011;18325;52.018;4.726;2023-05-17T10:28:18;6.28;;;1.10;;
31754;SDS011;18325;52.018;4.726;2023-05-17T10:30:45;6.43;;;1.45;;
31754;SDS011;18325;52.018;4.726;2023-05-17T10:33:12;7.43;;;1.38;;
31754;SDS011;18325;52.018;4.726;2023-05-17T10:35:43;3.83;;;1.10;;
31754;SDS011;18325;52.018;4.726;2023-05-17T10:38:10;8.93;;;1.60;;
31754;SDS011;18325;52.018;4.726;2023-05-17T10:40:37;4.85;;;1.38;;
31754;SDS011;18325;52.018;4.726;2023-05-17T10:43:04;4.80;;;1.17;;
31754;SDS011;18325;52.018;4.726;2023-05-17T10:45:32;2.78;;;1.05;;
31754;SDS011;18325;52.018;4.726;2023-05-17T10:47:59;10.70;;;1.58;;
31754;SDS011;18325;52.018;4.726;2023-05-17T10:50:31;4.17;;;0.93;;
31754;SDS011;18325;52.018;4.726;2023-05-17T10:52:58;3.78;;;0.95;;
31754;SDS011;18325;52.018;4.726;2023-05-17T10:55:33;3.45;;;1.17;;
31754;SDS011;18325;52.018;4.726;2023-05-17T10:58:12;6.15;;;1.20;;
31754;SDS011;18325;52.018;4.726;2023-05-17T11:00:41;7.13;;;1.02;;
31754;SDS011;18325;52.018;4.726;2023-05-17T11:03:12;6.30;;;1.37;;
31754;SDS011;18325;52.018;4.726;2023-05-17T11:05:41;3.28;;;1.13;;
31754;SDS011;18325;52.018;4.726;2023-05-17T11:08:14;4.83;;;1.37;;
31754;SDS011;18325;52.018;4.726;2023-05-17T11:13:34;4.63;;;1.90;;
31754;SDS011;18325;52.018;4.726;2023-05-17T11:16:02;2.00;;;0.80;;
31754;SDS011;18325;52.018;4.726;2023-05-17T11:18:44;5.90;;;1.17;;
31754;SDS011;18325;52.018;4.726;2023-05-17T11:21:12;1.40;;;0.70;;
31754;SDS011;18325;52.018;4.726;2023-05-17T11:23:40;2.50;;;1.45;;
31754;SDS011;18325;52.018;4.726;2023-05-17T11:26:11;4.75;;;1.25;;
31754;SDS011;18325;52.018;4.726;2023-05-17T11:28:42;8.18;;;1.38;;
31754;SDS011;18325;52.018;4.726;2023-05-17T11:31:09;4.57;;;1.23;;
31754;SDS011;18325;52.018;4.726;2023-05-17T11:33:36;1.67;;;0.98;;
31754;SDS011;18325;52.018;4.726;2023-05-17T11:36:04;4.78;;;1.15;;
31754;SDS011;18325;52.018;4.726;2023-05-17T11:38:31;6.28;;;1.13;;
31754;SDS011;18325;52.018;4.726;2023-05-17T11:41:14;5.43;;;1.00;;
31754;SDS011;18325;52.018;4.726;2023-05-17T11:43:44;7.10;;;1.58;;
31754;SDS011;18325;52.018;4.726;2023-05-17T11:46:15;3.97;;;1.40;;
31754;SDS011;18325;52.018;4.726;2023-05-17T11:48:44;2.85;;;1.08;;
31754;SDS011;18325;52.018;4.726;2023-05-17T11:51:12;3.97;;;1.20;;
31754;SDS011;18325;52.018;4.726;2023-05-17T11:53:39;8.45;;;1.85;;
31754;SDS011;18325;52.018;4.726;2023-05-17T11:56:08;3.45;;;1.20;;
31754;SDS011;18325;52.018;4.726;2023-05-17T11:58:35;4.70;;;1.63;;
31754;SDS011;18325;52.018;4.726;2023-05-17T12:01:02;5.07;;;1.30;;
31754;SDS011;18325;52.018;4.726;2023-05-17T12:03:30;4.78;;;1.20;;
31754;SDS011;18325;52.018;4.726;2023-05-17T12:06:01;3.58;;;1.35;;
31754;SDS011;18325;52.018;4.726;2023-05-17T12:08:28;3.92;;;1.40;;
31754;SDS011;18325;52.018;4.726;2023-05-17T12:10:56;7.20;;;1.08;;
31754;SDS011;18325;52.018;4.726;2023-05-17T12:13:24;7.20;;;1.48;;
31754;SDS011;18325;52.018;4.726;2023-05-17T12:15:54;14.10;;;1.52;;
31754;SDS011;18325;52.018;4.726;2023-05-17T12:18:21;7.00;;;1.63;;
31754;SDS011;18325;52.018;4.726;2023-05-17T12:20:57;7.15;;;1.50;;
31754;SDS011;18325;52.018;4.726;2023-05-17T12:23:24;5.50;;;1.88;;
31754;SDS011;18325;52.018;4.726;2023-05-17T12:26:00;6.17;;;1.80;;
31754;SDS011;18325;52.018;4.726;2023-05-17T12:28:32;3.17;;;1.23;;
31754;SDS011;18325;52.018;4.726;2023-05-17T12:30:58;5.73;;;2.17;;
31754;SDS011;18325;52.018;4.726;2023-05-17T12:33:28;3.40;;;1.17;;
31754;SDS011;18325;52.018;4.726;2023-05-17T12:35:56;5.85;;;1.52;;
31754;SDS011;18325;52.018;4.726;2023-05-17T12:38:22;3.50;;;1.80;;
31754;SDS011;18325;52.018;4.726;2023-05-17T12:40:50;3.60;;;1.60;;
31754;SDS011;18325;52.018;4.726;2023-05-17T12:43:16;3.60;;;1.43;;
31754;SDS011;18325;52.018;4.726;2023-05-17T12:45:47;6.37;;;1.37;;
31754;SDS011;18325;52.018;4.726;2023-05-17T12:48:13;3.73;;;1.33;;
31754;SDS011;18325;52.018;4.726;2023-05-17T12:50:41;7.03;;;1.60;;
31754;SDS011;18325;52.018;4.726;2023-05-17T12:53:09;5.70;;;1.50;;
31754;SDS011;18325;52.018;4.726;2023-05-17T12:55:36;3.92;;;1.45;;
31754;SDS011;18325;52.018;4.726;2023-05-17T12:58:02;4.20;;;1.43;;
31754;SDS011;18325;52.018;4.726;2023-05-17T13:00:29;5.18;;;2.00;;
31754;SDS011;18325;52.018;4.726;2023-05-17T13:02:57;4.30;;;1.60;;
31754;SDS011;18325;52.018;4.726;2023-05-17T13:05:23;3.72;;;1.40;;
31754;SDS011;18325;52.018;4.726;2023-05-17T13:07:50;8.15;;;1.73;;
31754;SDS011;18325;52.018;4.726;2023-05-17T13:10:20;5.63;;;1.42;;
31754;SDS011;18325;52.018;4.726;2023-05-17T13:12:54;7.30;;;1.85;;
31754;SDS011;18325;52.018;4.726;2023-05-17T13:15:25;6.95;;;1.50;;
31754;SDS011;18325;52.018;4.726;2023-05-17T13:17:53;6.30;;;1.65;;
31754;SDS011;18325;52.018;4.726;2023-05-17T13:20:21;6.93;;;1.73;;
31754;SDS011;18325;52.018;4.726;2023-05-17T13:22:48;5.97;;;1.73;;
31754;SDS011;18325;52.018;4.726;2023-05-17T13:25:15;7.22;;;1.50;;
31754;SDS011;18325;52.018;4.726;2023-05-17T13:27:42;3.20;;;1.27;;
31754;SDS011;18325;52.018;4.726;2023-05-17T13:30:11;3.42;;;1.25;;
31754;SDS011;18325;52.018;4.726;2023-05-17T13:32:38;7.10;;;1.35;;
31754;SDS011;18325;52.018;4.726;2023-05-17T13:35:04;4.97;;;1.63;;
31754;SDS011;18325;52.018;4.726;2023-05-17T13:37:33;4.82;;;1.50;;
31754;SDS011;18325;52.018;4.726;2023-05-17T13:39:59;6.45;;;1.67;;
31754;SDS011;18325;52.018;4.726;2023-05-17T13:42:26;5.65;;;1.63;;
31754;SDS011;18325;52.018;4.726;2023-05-17T13:44:53;4.40;;;1.58;;
31754;SDS011;18325;52.018;4.726;2023-05-17T13:47:19;5.22;;;1.88;;
31754;SDS011;18325;52.018;4.726;2023-05-17T13:49:46;4.95;;;1.40;;
31754;SDS011;18325;52.018;4.726;2023-05-17T13:52:13;8.23;;;1.83;;
31754;SDS011;18325;52.018;4.726;2023-05-17T13:54:44;7.93;;;1.50;;
31754;SDS011;18325;52.018;4.726;2023-05-17T13:57:10;8.88;;;2.10;;
31754;SDS011;18325;52.018;4.726;2023-05-17T13:59:37;6.75;;;1.80;;
31754;SDS011;18325;52.018;4.726;2023-05-17T14:02:04;6.50;;;1.73;;
31754;SDS011;18325;52.018;4.726;2023-05-17T14:04:30;5.80;;;1.40;;
31754;SDS011;18325;52.018;4.726;2023-05-17T14:06:57;6.97;;;1.73;;
31754;SDS011;18325;52.018;4.726;2023-05-17T14:09:24;10.57;;;1.98;;
31754;SDS011;18325;52.018;4.726;2023-05-17T14:11:51;9.32;;;2.70;;
31754;SDS011;18325;52.018;4.726;2023-05-17T14:14:18;13.30;;;2.72;;
31754;SDS011;18325;52.018;4.726;2023-05-17T14:16:44;6.47;;;1.58;;
31754;SDS011;18325;52.018;4.726;2023-05-17T14:19:11;2.97;;;1.50;;
31754;SDS011;18325;52.018;4.726;2023-05-17T14:21:37;9.82;;;1.90;;
31754;SDS011;18325;52.018;4.726;2023-05-17T14:24:04;4.60;;;1.60;;
31754;SDS011;18325;52.018;4.726;2023-05-17T14:26:30;7.50;;;2.28;;
31754;SDS011;18325;52.018;4.726;2023-05-17T14:28:58;6.75;;;1.50;;
31754;SDS011;18325;52.018;4.726;2023-05-17T14:31:25;9.10;;;1.58;;
31754;SDS011;18325;52.018;4.726;2023-05-17T14:33:52;6.63;;;1.65;;
31754;SDS011;18325;52.018;4.726;2023-05-17T14:36:18;7.63;;;2.00;;
31754;SDS011;18325;52.018;4.726;2023-05-17T14:38:45;6.55;;;1.90;;
31754;SDS011;18325;52.018;4.726;2023-05-17T14:41:11;3.55;;;1.70;;
31754;SDS011;18325;52.018;4.726;2023-05-17T14:43:37;12.85;;;2.70;;
31754;SDS011;18325;52.018;4.726;2023-05-17T14:46:05;5.55;;;1.70;;
31754;SDS011;18325;52.018;4.726;2023-05-17T14:48:31;6.97;;;1.35;;
31754;SDS011;18325;52.018;4.726;2023-05-17T14:50:58;5.22;;;1.60;;